Time,TemperatureF,DewpointF,PressureIn,WindDirection,WindDirectionDegrees,WindSpeedMPH,WindSpeedGustMPH,Humidity,HourlyPrecipIn,Conditions,Clouds,dailyrainin,SolarRadiationWatts/m^2,SoftwareType,DateUTC
2013-11-25 00:01:00,35.3,27.2,30.40,North,5,5.0,6.0,72,0.00,,---,0.00,0.00,VWS V14.00,2013-11-25 06:01:00,
2013-11-25 00:06:00,35.3,27.2,30.40,North,355,4.0,5.0,72,0.00,,---,0.00,0.00,VWS V14.00,2013-11-25 06:06:00,
2013-11-25 00:11:00,35.4,27.3,30.40,North,355,3.0,3.0,72,0.00,,---,0.00,0.00,VWS V14.00,2013-11-25 06:11:00,
2013-11-25 00:16:00,35.4,27.0,30.40,North,355,2.0,4.0,71,0.00,,---,0.00,0.00,VWS V14.00,2013-11-25 06:16:00,
2013-11-25 00:21:00,35.4,27.0,30.40,North,360,2.0,2.0,71,0.00,,---,0.00,0.00,VWS V14.00,2013-11-25 06:21:00,
2013-11-25 00:26:00,35.5,27.0,30.39,NE,46,3.0,5.0,71,0.00,,---,0.00,0.00,VWS V14.00,2013-11-25 06:26:00,
2013-11-25 00:31:00,35.4,27.0,30.38,NE,53,5.0,5.0,71,0.00,,---,0.00,0.00,VWS V14.00,2013-11-25 06:31:00,
2013-11-25 00:36:00,35.4,27.3,30.38,NE,39,4.0,4.0,72,0.00,,---,0.00,0.00,VWS V14.00,2013-11-25 06:36:00,
2013-11-25 00:41:00,35.4,27.3,30.38,NNE,17,2.0,2.0,72,0.00,,---,0.00,0.00,VWS V14.00,2013-11-25 06:41:00,
2013-11-25 00:46:00,35.4,27.0,30.37,NE,40,6.0,7.0,71,0.00,,---,0.00,0.00,VWS V14.00,2013-11-25 06:46:00,
2013-11-25 00:51:00,35.5,27.0,30.36,NE,42,6.0,8.0,71,0.00,,---,0.00,0.00,VWS V14.00,2013-11-25 06:51:00,
2013-11-25 00:56:00,35.5,27.4,30.36,NNE,22,4.0,5.0,72,0.00,,---,0.00,0.00,VWS V14.00,2013-11-25 06:56:00,
2013-11-25 01:01:00,35.5,27.0,30.36,NNE,30,5.0,6.0,71,0.00,,---,0.00,0.00,VWS V14.00,2013-11-25 07:01:00,
2013-11-25 01:06:00,35.5,27.0,30.36,NE,52,9.0,10.0,71,0.00,,---,0.00,0.00,VWS V14.00,2013-11-25 07:06:00,
2013-11-25 01:11:00,35.6,27.1,30.36,NNE,27,2.0,7.0,71,0.00,,---,0.00,0.00,VWS V14.00,2013-11-25 07:11:00,
2013-11-25 01:16:00,35.6,27.1,30.36,NNE,30,2.0,5.0,71,0.00,,---,0.00,0.00,VWS V14.00,2013-11-25 07:16:00,
2013-11-25 01:21:00,35.6,27.5,30.36,NNE,32,3.0,6.0,72,0.00,,---,0.00,0.00,VWS V14.00,2013-11-25 07:21:00,
2013-11-25 01:26:00,35.6,27.5,30.36,NE,34,4.0,6.0,72,0.00,,---,0.00,0.00,VWS V14.00,2013-11-25 07:26:00,
2013-11-25 01:31:00,35.6,27.5,30.36,NE,43,2.0,5.0,72,0.00,,---,0.00,0.00,VWS V14.00,2013-11-25 07:31:00,
2013-11-25 01:36:00,35.6,27.8,30.36,NNE,28,3.0,5.0,73,0.00,,---,0.00,0.00,VWS V14.00,2013-11-25 07:36:00,
2013-11-25 01:41:00,35.6,27.5,30.37,NNE,13,2.0,5.0,72,0.00,,---,0.00,0.00,VWS V14.00,2013-11-25 07:41:00,
2013-11-25 01:46:00,35.6,27.8,30.36,NNE,18,3.0,4.0,73,0.00,,---,0.00,0.00,VWS V14.00,2013-11-25 07:46:00,
2013-11-25 01:51:00,35.6,27.8,30.36,NNE,32,7.0,8.0,73,0.00,,---,0.00,0.00,VWS V14.00,2013-11-25 07:51:00,
2013-11-25 01:56:00,35.6,28.1,30.36,NNE,18,5.0,7.0,74,0.00,,---,0.00,0.00,VWS V14.00,2013-11-25 07:56:00,
2013-11-25 02:01:00,35.5,28.4,30.36,ENE,57,2.0,4.0,75,0.00,,---,0.00,0.00,VWS V14.00,2013-11-25 08:01:00,
2013-11-25 02:06:00,35.2,28.4,30.35,ENE,66,7.0,7.0,76,0.00,,---,0.00,0.00,VWS V14.00,2013-11-25 08:06:00,
2013-11-25 02:11:00,35.1,28.6,30.35,NE,34,5.0,7.0,77,0.00,,---,0.00,0.00,VWS V14.00,2013-11-25 08:11:00,
2013-11-25 02:16:00,35.0,28.9,30.35,NNE,32,4.0,4.0,78,0.00,,---,0.00,0.00,VWS V14.00,2013-11-25 08:16:00,
2013-11-25 02:21:00,35.0,28.9,30.35,North,9,4.0,4.0,78,0.00,,---,0.00,0.00,VWS V14.00,2013-11-25 08:21:00,
2013-11-25 02:26:00,35.0,28.9,30.35,NE,38,2.0,4.0,78,0.00,,---,0.00,0.00,VWS V14.00,2013-11-25 08:26:00,
2013-11-25 02:31:00,35.0,28.9,30.34,NE,46,2.0,4.0,78,0.00,,---,0.00,0.00,VWS V14.00,2013-11-25 08:31:00,
2013-11-25 02:36:00,35.1,29.3,30.34,NNE,17,2.0,3.0,79,0.00,,---,0.00,0.00,VWS V14.00,2013-11-25 08:36:00,
2013-11-25 02:41:00,35.1,28.9,30.34,NE,44,3.0,4.0,78,0.00,,---,0.00,0.00,VWS V14.00,2013-11-25 08:41:00,
2013-11-25 02:46:00,35.1,29.3,30.34,NNE,33,2.0,3.0,79,0.00,,---,0.00,0.00,VWS V14.00,2013-11-25 08:46:00,
2013-11-25 02:51:00,35.1,29.3,30.34,NNE,32,2.0,2.0,79,0.00,,---,0.00,0.00,VWS V14.00,2013-11-25 08:51:00,
2013-11-25 02:56:00,35.1,29.3,30.34,NE,38,4.0,4.0,79,0.00,,---,0.00,0.00,VWS V14.00,2013-11-25 08:56:00,
2013-11-25 03:01:00,35.2,29.0,30.34,NNE,20,2.0,4.0,78,0.00,,---,0.00,0.00,VWS V14.00,2013-11-25 09:01:00,
2013-11-25 03:06:00,35.2,28.7,30.33,North,5,3.0,5.0,77,0.00,,---,0.00,0.00,VWS V14.00,2013-11-25 09:06:00,
2013-11-25 03:11:00,35.3,29.1,30.33,NNE,19,3.0,4.0,78,0.00,,---,0.00,0.00,VWS V14.00,2013-11-25 09:11:00,
2013-11-25 03:16:00,35.3,29.1,30.33,North,355,3.0,4.0,78,0.00,,---,0.00,0.00,VWS V14.00,2013-11-25 09:16:00,
2013-11-25 03:21:00,35.4,29.2,30.33,North,5,3.0,4.0,78,0.00,,---,0.00,0.00,VWS V14.00,2013-11-25 09:21:00,
2013-11-25 03:26:00,35.5,29.0,30.33,NNE,32,2.0,3.0,77,0.00,,---,0.00,0.00,VWS V14.00,2013-11-25 09:26:00,
2013-11-25 03:31:00,35.6,29.4,30.33,NNE,17,3.0,6.0,78,0.00,,---,0.00,0.00,VWS V14.00,2013-11-25 09:31:00,
2013-11-25 03:36:00,35.6,29.4,30.33,NNE,28,3.0,3.0,78,0.00,,---,0.01,0.00,VWS V14.00,2013-11-25 09:36:00,
2013-11-25 03:41:00,35.5,29.6,30.33,NE,42,2.0,3.0,79,0.00,,---,0.01,0.00,VWS V14.00,2013-11-25 09:41:00,
2013-11-25 03:46:00,35.5,30.0,30.33,North,10,3.0,4.0,80,0.07,,---,0.02,0.00,VWS V14.00,2013-11-25 09:46:00,
2013-11-25 03:51:00,35.3,29.8,30.33,North,360,3.0,5.0,80,0.07,,---,0.02,0.00,VWS V14.00,2013-11-25 09:51:00,
2013-11-25 03:56:00,35.1,29.9,30.33,NNE,24,1.0,3.0,81,0.05,,---,0.02,0.00,VWS V14.00,2013-11-25 09:56:00,
2013-11-25 04:01:00,35.0,29.8,30.32,NNE,15,3.0,6.0,81,0.04,,---,0.02,0.00,VWS V14.00,2013-11-25 10:01:00,
2013-11-25 04:06:00,34.9,29.7,30.32,NNE,16,4.0,6.0,81,0.00,,---,0.02,0.00,VWS V14.00,2013-11-25 10:06:00,
2013-11-25 04:11:00,34.8,29.9,30.32,NNE,24,3.0,5.0,82,0.00,,---,0.02,0.00,VWS V14.00,2013-11-25 10:11:00,
2013-11-25 04:16:00,34.7,30.1,30.32,North,360,2.0,4.0,83,0.00,,---,0.02,0.00,VWS V14.00,2013-11-25 10:16:00,
2013-11-25 04:21:00,34.6,30.3,30.32,North,10,2.0,3.0,84,0.00,,---,0.02,0.00,VWS V14.00,2013-11-25 10:21:00,
2013-11-25 04:26:00,34.6,30.3,30.32,NE,35,5.0,5.0,84,0.00,,---,0.02,0.00,VWS V14.00,2013-11-25 10:26:00,
2013-11-25 04:31:00,34.5,30.2,30.32,NNE,18,2.0,4.0,84,0.00,,---,0.02,0.00,VWS V14.00,2013-11-25 10:31:00,
2013-11-25 04:36:00,34.5,30.5,30.32,NNE,18,3.0,3.0,85,0.00,,---,0.02,0.00,VWS V14.00,2013-11-25 10:36:00,
2013-11-25 04:41:00,34.5,30.8,30.32,North,10,3.0,3.0,86,0.00,,---,0.02,0.00,VWS V14.00,2013-11-25 10:41:00,
2013-11-25 04:46:00,34.4,30.6,30.32,NNW,340,4.0,5.0,86,0.00,,---,0.02,0.00,VWS V14.00,2013-11-25 10:46:00,
2013-11-25 04:51:00,34.3,30.6,30.32,NNW,348,5.0,5.0,86,0.00,,---,0.02,0.00,VWS V14.00,2013-11-25 10:51:00,
2013-11-25 04:56:00,34.2,30.7,30.31,North,5,2.0,4.0,87,0.00,,---,0.02,0.00,VWS V14.00,2013-11-25 10:56:00,
2013-11-25 05:01:00,34.2,30.7,30.31,NNE,23,3.0,5.0,87,0.00,,---,0.02,0.00,VWS V14.00,2013-11-25 11:01:00,
2013-11-25 05:06:00,34.2,30.7,30.31,North,360,5.0,5.0,87,0.00,,---,0.02,0.00,VWS V14.00,2013-11-25 11:06:00,
2013-11-25 05:11:00,34.1,30.6,30.31,North,5,4.0,7.0,87,0.00,,---,0.02,0.00,VWS V14.00,2013-11-25 11:11:00,
2013-11-25 05:16:00,34.1,30.6,30.31,NE,36,5.0,5.0,87,0.00,,---,0.02,0.00,VWS V14.00,2013-11-25 11:16:00,
2013-11-25 05:21:00,34.1,30.6,30.30,NNE,26,6.0,8.0,87,0.00,,---,0.02,0.00,VWS V14.00,2013-11-25 11:21:00,
2013-11-25 05:26:00,34.0,30.5,30.30,NNE,24,3.0,4.0,87,0.00,,---,0.02,0.00,VWS V14.00,2013-11-25 11:26:00,
2013-11-25 05:31:00,34.0,30.5,30.30,NNE,17,3.0,4.0,87,0.00,,---,0.02,0.00,VWS V14.00,2013-11-25 11:31:00,
2013-11-25 05:36:00,34.0,30.5,30.30,NNE,32,3.0,6.0,87,0.00,,---,0.02,0.00,VWS V14.00,2013-11-25 11:36:00,
2013-11-25 05:41:00,34.0,30.5,30.30,NNE,22,4.0,5.0,87,0.00,,---,0.02,0.00,VWS V14.00,2013-11-25 11:41:00,
2013-11-25 05:46:00,34.0,30.5,30.30,NE,40,4.0,4.0,87,0.00,,---,0.02,0.00,VWS V14.00,2013-11-25 11:46:00,
2013-11-25 05:51:00,34.1,30.6,30.31,North,5,4.0,5.0,87,0.00,,---,0.02,0.00,VWS V14.00,2013-11-25 11:51:00,
2013-11-25 05:56:00,34.1,30.6,30.31,NNE,17,5.0,6.0,87,0.00,,---,0.02,0.00,VWS V14.00,2013-11-25 11:56:00,
2013-11-25 06:01:00,34.1,30.6,30.32,North,9,2.0,4.0,87,0.00,,---,0.02,0.00,VWS V14.00,2013-11-25 12:01:00,
2013-11-25 06:06:00,34.2,30.7,30.32,North,350,2.0,4.0,87,0.00,,---,0.02,0.00,VWS V14.00,2013-11-25 12:06:00,
2013-11-25 06:11:00,34.3,31.1,30.33,NNW,335,3.0,5.0,88,0.00,,---,0.02,0.00,VWS V14.00,2013-11-25 12:11:00,
2013-11-25 06:16:00,34.3,31.1,30.34,NNW,342,4.0,4.0,88,0.00,,---,0.02,0.00,VWS V14.00,2013-11-25 12:16:00,
2013-11-25 06:21:00,34.3,31.1,30.34,NW,319,3.0,5.0,88,0.00,,---,0.02,0.00,VWS V14.00,2013-11-25 12:21:00,
2013-11-25 06:26:00,34.4,31.2,30.34,North,360,2.0,3.0,88,0.00,,---,0.02,0.00,VWS V14.00,2013-11-25 12:26:00,
2013-11-25 06:31:00,34.4,30.9,30.34,NNW,336,2.0,3.0,87,0.00,,---,0.03,0.00,VWS V14.00,2013-11-25 12:31:00,
2013-11-25 06:36:00,34.4,30.9,30.34,NNW,338,4.0,5.0,87,0.00,,---,0.03,0.00,VWS V14.00,2013-11-25 12:36:00,
2013-11-25 06:41:00,34.4,30.9,30.34,North,5,2.0,3.0,87,0.00,,---,0.03,0.00,VWS V14.00,2013-11-25 12:41:00,
2013-11-25 06:46:00,34.4,31.2,30.33,NNE,15,5.0,6.0,88,0.00,,---,0.03,0.00,VWS V14.00,2013-11-25 12:46:00,
2013-11-25 06:51:00,34.3,31.1,30.33,NNE,19,2.0,4.0,88,0.00,,---,0.03,0.00,VWS V14.00,2013-11-25 12:51:00,
2013-11-25 06:56:00,34.3,31.1,30.32,NNE,22,5.0,5.0,88,0.00,,---,0.03,0.00,VWS V14.00,2013-11-25 12:56:00,
2013-11-25 07:01:00,34.4,31.2,30.31,NNW,341,5.0,6.0,88,0.00,,---,0.03,0.00,VWS V14.00,2013-11-25 13:01:00,
2013-11-25 07:06:00,34.3,31.1,30.32,NNW,336,5.0,7.0,88,0.00,,---,0.03,0.00,VWS V14.00,2013-11-25 13:06:00,
2013-11-25 07:11:00,34.3,31.1,30.33,North,350,3.0,3.0,88,0.00,,---,0.03,0.00,VWS V14.00,2013-11-25 13:11:00,
2013-11-25 07:16:00,34.4,31.2,30.32,North,5,3.0,3.0,88,0.00,,---,0.03,7.00,VWS V14.00,2013-11-25 13:16:00,
2013-11-25 07:21:00,34.4,31.5,30.32,North,360,3.0,3.0,89,0.00,,---,0.03,9.00,VWS V14.00,2013-11-25 13:21:00,
2013-11-25 07:26:00,34.4,31.5,30.32,NNE,17,6.0,6.0,89,0.00,,---,0.03,12.00,VWS V14.00,2013-11-25 13:26:00,
2013-11-25 07:31:00,34.4,31.5,30.32,NNE,28,4.0,6.0,89,0.00,,---,0.03,18.00,VWS V14.00,2013-11-25 13:31:00,
2013-11-25 07:36:00,34.3,31.1,30.32,NNE,19,6.0,6.0,88,0.00,,---,0.03,16.00,VWS V14.00,2013-11-25 13:36:00,
2013-11-25 07:41:00,34.3,31.1,30.32,NE,46,6.0,7.0,88,0.00,,---,0.03,16.00,VWS V14.00,2013-11-25 13:41:00,
2013-11-25 07:46:00,34.3,31.1,30.32,NNE,28,5.0,6.0,88,0.00,,---,0.03,16.00,VWS V14.00,2013-11-25 13:46:00,
2013-11-25 07:51:00,34.3,31.1,30.31,NE,44,4.0,6.0,88,0.00,,---,0.03,14.00,VWS V14.00,2013-11-25 13:51:00,
2013-11-25 07:56:00,34.3,31.1,30.31,NE,51,5.0,6.0,88,0.57,,---,0.17,11.00,VWS V14.00,2013-11-25 13:56:00,
2013-11-25 08:01:00,34.2,31.0,30.32,NNE,16,4.0,4.0,88,0.10,,---,0.17,11.00,VWS V14.00,2013-11-25 14:01:00,
2013-11-25 08:06:00,34.2,31.0,30.31,NNE,32,5.0,8.0,88,0.08,,---,0.18,12.00,VWS V14.00,2013-11-25 14:06:00,
2013-11-25 08:10:00,34.2,31.3,30.31,North,9,4.0,7.0,89,0.09,,---,0.19,12.00,VWS V14.00,2013-11-25 14:10:00,
2013-11-25 08:15:00,34.1,31.2,30.31,NE,41,5.0,7.0,89,0.24,,---,0.21,12.00,VWS V14.00,2013-11-25 14:15:00,
2013-11-25 08:20:00,34.1,31.2,30.31,NE,42,3.0,7.0,89,0.17,,---,0.22,11.00,VWS V14.00,2013-11-25 14:20:00,
2013-11-25 08:25:00,34.0,31.1,30.32,NNE,21,3.0,4.0,89,0.12,,---,0.23,12.00,VWS V14.00,2013-11-25 14:25:00,
2013-11-25 08:30:00,34.0,31.1,30.32,NNE,15,4.0,4.0,89,0.24,,---,0.25,16.00,VWS V14.00,2013-11-25 14:30:00,
2013-11-25 08:35:00,34.0,31.1,30.32,North,360,3.0,4.0,89,0.18,,---,0.26,18.00,VWS V14.00,2013-11-25 14:35:00,
2013-11-25 08:40:00,34.0,31.4,30.32,NNE,19,4.0,5.0,90,0.13,,---,0.28,23.00,VWS V14.00,2013-11-25 14:40:00,
2013-11-25 08:45:00,34.0,31.4,30.32,North,360,4.0,4.0,90,0.11,,---,0.28,14.00,VWS V14.00,2013-11-25 14:45:00,
2013-11-25 08:50:00,34.0,31.4,30.32,North,11,4.0,4.0,90,0.09,,---,0.29,19.00,VWS V14.00,2013-11-25 14:50:00,
2013-11-25 08:55:00,34.0,31.4,30.32,NE,38,2.0,2.0,90,0.09,,---,0.30,14.00,VWS V14.00,2013-11-25 14:55:00,
2013-11-25 09:00:00,34.0,31.4,30.32,NE,55,4.0,6.0,90,0.10,,---,0.31,21.00,VWS V14.00,2013-11-25 15:00:00,
2013-11-25 09:05:00,34.0,31.4,30.32,ENE,70,3.0,4.0,90,0.17,,---,0.33,25.00,VWS V14.00,2013-11-25 15:05:00,
2013-11-25 09:10:00,34.0,31.4,30.32,NE,41,2.0,3.0,90,0.32,,---,0.35,39.00,VWS V14.00,2013-11-25 15:10:00,
2013-11-25 09:15:00,34.1,31.5,30.32,NE,50,2.0,3.0,90,0.18,,---,0.37,53.00,VWS V14.00,2013-11-25 15:15:00,
2013-11-25 09:20:00,34.1,31.5,30.32,ENE,67,4.0,4.0,90,0.12,,---,0.37,37.00,VWS V14.00,2013-11-25 15:20:00,
2013-11-25 09:25:00,34.1,31.5,30.32,NE,52,3.0,4.0,90,0.06,,---,0.38,44.00,VWS V14.00,2013-11-25 15:25:00,
2013-11-25 09:30:00,34.1,31.5,30.32,NE,55,3.0,4.0,90,0.06,,---,0.38,54.00,VWS V14.00,2013-11-25 15:30:00,
2013-11-25 09:35:00,34.1,31.5,30.31,North,355,4.0,4.0,90,0.08,,---,0.39,58.00,VWS V14.00,2013-11-25 15:35:00,
2013-11-25 09:40:00,34.2,31.6,30.31,ENE,57,3.0,3.0,90,0.10,,---,0.40,83.00,VWS V14.00,2013-11-25 15:40:00,
2013-11-25 09:45:00,34.3,31.7,30.31,NNE,29,7.0,7.0,90,0.09,,---,0.40,54.00,VWS V14.00,2013-11-25 15:45:00,
2013-11-25 09:50:00,34.2,31.6,30.31,ENE,67,4.0,4.0,90,0.06,,---,0.41,54.00,VWS V14.00,2013-11-25 15:50:00,
2013-11-25 09:55:00,34.2,31.6,30.31,ENE,58,7.0,7.0,90,0.06,,---,0.41,62.00,VWS V14.00,2013-11-25 15:55:00,
2013-11-25 10:00:00,34.2,31.6,30.31,NE,49,5.0,5.0,90,0.06,,---,0.41,60.00,VWS V14.00,2013-11-25 16:00:00,
2013-11-25 10:05:00,34.2,31.6,30.30,ENE,60,5.0,7.0,90,0.05,,---,0.42,53.00,VWS V14.00,2013-11-25 16:05:00,
2013-11-25 10:10:00,34.3,31.7,30.30,ENE,59,5.0,6.0,90,0.05,,---,0.42,47.00,VWS V14.00,2013-11-25 16:10:00,
2013-11-25 10:15:00,34.4,31.8,30.30,NE,55,5.0,5.0,90,0.04,,---,0.42,46.00,VWS V14.00,2013-11-25 16:15:00,
2013-11-25 10:20:00,34.4,31.8,30.29,ENE,61,5.0,7.0,90,0.00,,---,0.42,44.00,VWS V14.00,2013-11-25 16:20:00,
2013-11-25 10:25:00,34.5,32.2,30.29,NE,45,7.0,7.0,91,0.00,,---,0.43,37.00,VWS V14.00,2013-11-25 16:25:00,
2013-11-25 10:30:00,34.5,32.2,30.28,ENE,59,5.0,5.0,91,0.00,,---,0.43,42.00,VWS V14.00,2013-11-25 16:30:00,
2013-11-25 10:35:00,34.5,32.2,30.28,NNE,28,4.0,4.0,91,0.08,,---,0.44,63.00,VWS V14.00,2013-11-25 16:35:00,
2013-11-25 10:40:00,34.5,32.2,30.26,East,83,6.0,7.0,91,0.09,,---,0.45,102.00,VWS V14.00,2013-11-25 16:40:00,
2013-11-25 10:45:00,34.8,32.5,30.26,NE,53,5.0,6.0,91,0.10,,---,0.46,105.00,VWS V14.00,2013-11-25 16:45:00,
2013-11-25 10:50:00,34.9,32.5,30.26,ENE,57,4.0,6.0,91,0.09,,---,0.46,93.00,VWS V14.00,2013-11-25 16:50:00,
2013-11-25 10:55:00,35.0,32.6,30.26,NNE,24,3.0,4.0,91,0.08,,---,0.47,83.00,VWS V14.00,2013-11-25 16:55:00,
2013-11-25 11:00:00,35.0,32.6,30.26,NNE,16,3.0,6.0,91,0.07,,---,0.47,69.00,VWS V14.00,2013-11-25 17:00:00,
2013-11-25 11:05:00,35.0,32.6,30.27,NE,44,4.0,7.0,91,0.04,,---,0.47,62.00,VWS V14.00,2013-11-25 17:05:00,
2013-11-25 11:10:00,35.0,32.6,30.26,North,5,5.0,5.0,91,0.00,,---,0.47,74.00,VWS V14.00,2013-11-25 17:10:00,
2013-11-25 11:15:00,35.0,32.6,30.27,North,360,5.0,5.0,91,0.00,,---,0.48,54.00,VWS V14.00,2013-11-25 17:15:00,
2013-11-25 11:20:00,35.0,32.6,30.27,North,10,5.0,5.0,91,0.00,,---,0.48,44.00,VWS V14.00,2013-11-25 17:20:00,
2013-11-25 11:25:00,35.1,32.7,30.26,North,5,5.0,5.0,91,0.00,,---,0.48,62.00,VWS V14.00,2013-11-25 17:25:00,
2013-11-25 11:30:00,35.0,32.6,30.25,North,5,4.0,4.0,91,0.05,,---,0.49,63.00,VWS V14.00,2013-11-25 17:30:00,
2013-11-25 11:35:00,35.1,32.7,30.25,North,9,6.0,6.0,91,0.10,,---,0.50,72.00,VWS V14.00,2013-11-25 17:35:00,
2013-11-25 11:40:00,35.2,32.8,30.24,NNE,14,6.0,7.0,91,0.08,,---,0.50,83.00,VWS V14.00,2013-11-25 17:40:00,
2013-11-25 11:45:00,35.2,32.8,30.23,NNE,13,5.0,5.0,91,0.06,,---,0.51,69.00,VWS V14.00,2013-11-25 17:45:00,
2013-11-25 11:50:00,35.3,32.9,30.23,NNE,15,6.0,6.0,91,0.06,,---,0.51,105.00,VWS V14.00,2013-11-25 17:50:00,
2013-11-25 11:55:00,35.4,33.0,30.22,NNE,28,6.0,7.0,91,0.05,,---,0.51,91.00,VWS V14.00,2013-11-25 17:55:00,
2013-11-25 12:00:00,35.5,33.1,30.22,North,360,3.0,3.0,91,0.04,,---,0.52,62.00,VWS V14.00,2013-11-25 18:00:00,
2013-11-25 12:05:00,35.5,33.1,30.21,NNE,30,3.0,4.0,91,0.04,,---,0.52,60.00,VWS V14.00,2013-11-25 18:05:00,
2013-11-25 12:10:00,35.6,33.2,30.21,NNE,24,2.0,2.0,91,0.04,,---,0.52,60.00,VWS V14.00,2013-11-25 18:10:00,
2013-11-25 12:15:00,35.8,33.4,30.20,North,350,4.0,5.0,91,0.04,,---,0.52,70.00,VWS V14.00,2013-11-25 18:15:00,
2013-11-25 12:20:00,35.8,33.4,30.20,NNE,32,7.0,7.0,91,0.00,,---,0.52,60.00,VWS V14.00,2013-11-25 18:20:00,
2013-11-25 12:25:00,35.8,33.4,30.20,NNE,32,2.0,2.0,91,0.00,,---,0.52,58.00,VWS V14.00,2013-11-25 18:25:00,
2013-11-25 12:30:00,35.9,33.5,30.19,NNE,24,7.0,7.0,91,0.00,,---,0.53,60.00,VWS V14.00,2013-11-25 18:30:00,
2013-11-25 12:35:00,35.9,33.5,30.19,NE,38,4.0,4.0,91,0.00,,---,0.53,51.00,VWS V14.00,2013-11-25 18:35:00,
2013-11-25 12:40:00,36.0,33.9,30.18,North,355,4.0,6.0,92,0.00,,---,0.53,60.00,VWS V14.00,2013-11-25 18:40:00,
2013-11-25 12:45:00,36.0,33.6,30.18,NE,40,5.0,5.0,91,0.00,,---,0.53,97.00,VWS V14.00,2013-11-25 18:45:00,
2013-11-25 12:50:00,36.2,34.1,30.17,NE,49,5.0,5.0,92,0.00,,---,0.54,62.00,VWS V14.00,2013-11-25 18:50:00,
2013-11-25 12:55:00,36.2,34.1,30.17,NE,38,8.0,10.0,92,0.08,,---,0.54,90.00,VWS V14.00,2013-11-25 18:55:00,
2013-11-25 13:00:00,36.2,33.8,30.17,NE,44,6.0,7.0,91,0.08,,---,0.55,97.00,VWS V14.00,2013-11-25 19:00:00,
2013-11-25 13:05:00,36.4,34.3,30.17,NNE,27,4.0,4.0,92,0.10,,---,0.56,67.00,VWS V14.00,2013-11-25 19:05:00,
2013-11-25 13:10:00,36.4,34.3,30.17,NE,44,7.0,7.0,92,0.07,,---,0.56,58.00,VWS V14.00,2013-11-25 19:10:00,
2013-11-25 13:15:00,36.4,34.3,30.17,NNE,30,2.0,2.0,92,0.04,,---,0.56,32.00,VWS V14.00,2013-11-25 19:15:00,
2013-11-25 13:20:00,36.3,34.2,30.17,ENE,65,2.0,3.0,92,0.00,,---,0.57,25.00,VWS V14.00,2013-11-25 19:20:00,
2013-11-25 13:25:00,36.4,34.0,30.17,NNE,14,4.0,4.0,91,0.12,,---,0.58,32.00,VWS V14.00,2013-11-25 19:25:00,
2013-11-25 13:30:00,36.4,34.3,30.18,NNE,30,3.0,3.0,92,0.37,,---,0.61,35.00,VWS V14.00,2013-11-25 19:30:00,
2013-11-25 13:35:00,36.3,34.2,30.17,NNE,17,4.0,4.0,92,0.24,,---,0.64,54.00,VWS V14.00,2013-11-25 19:35:00,
2013-11-25 13:40:00,36.3,33.9,30.17,NE,37,3.0,3.0,91,0.38,,---,0.67,49.00,VWS V14.00,2013-11-25 19:40:00,
2013-11-25 13:45:00,36.3,33.9,30.16,NNE,22,5.0,5.0,91,0.24,,---,0.69,53.00,VWS V14.00,2013-11-25 19:45:00,
2013-11-25 13:50:00,36.3,34.2,30.16,ENE,58,2.0,2.0,92,0.26,,---,0.71,47.00,VWS V14.00,2013-11-25 19:50:00,
2013-11-25 13:55:00,36.4,34.3,30.16,NNE,27,4.0,4.0,92,0.22,,---,0.72,49.00,VWS V14.00,2013-11-25 19:55:00,
2013-11-25 14:00:00,36.4,34.3,30.16,NNE,29,3.0,4.0,92,0.17,,---,0.74,32.00,VWS V14.00,2013-11-25 20:00:00,
2013-11-25 14:05:00,36.3,34.2,30.16,NNE,24,3.0,4.0,92,0.21,,---,0.76,37.00,VWS V14.00,2013-11-25 20:05:00,
2013-11-25 14:10:00,36.3,34.2,30.15,NNE,27,4.0,4.0,92,0.26,,---,0.78,33.00,VWS V14.00,2013-11-25 20:10:00,
2013-11-25 14:15:00,36.4,34.3,30.15,NE,40,5.0,5.0,92,0.15,,---,0.79,35.00,VWS V14.00,2013-11-25 20:15:00,
2013-11-25 14:20:00,36.5,34.4,30.15,NNE,19,1.0,1.0,92,0.18,,---,0.81,26.00,VWS V14.00,2013-11-25 20:20:00,
2013-11-25 14:25:00,36.5,34.4,30.15,North,10,4.0,6.0,92,0.16,,---,0.82,23.00,VWS V14.00,2013-11-25 20:25:00,
2013-11-25 14:30:00,36.5,34.4,30.15,NNE,29,2.0,5.0,92,0.21,,---,0.84,21.00,VWS V14.00,2013-11-25 20:30:00,
2013-11-25 14:35:00,36.5,34.4,30.15,NNE,26,4.0,6.0,92,0.16,,---,0.85,25.00,VWS V14.00,2013-11-25 20:35:00,
2013-11-25 14:40:00,36.4,34.3,30.15,NNE,19,4.0,6.0,92,0.13,,---,0.86,26.00,VWS V14.00,2013-11-25 20:40:00,
2013-11-25 14:45:00,36.5,34.4,30.14,NNE,12,5.0,5.0,92,0.15,,---,0.88,35.00,VWS V14.00,2013-11-25 20:45:00,
2013-11-25 14:50:00,36.6,34.5,30.14,NNE,24,5.0,5.0,92,0.17,,---,0.89,40.00,VWS V14.00,2013-11-25 20:50:00,
2013-11-25 14:55:00,36.6,34.5,30.14,NE,40,2.0,3.0,92,0.13,,---,0.90,53.00,VWS V14.00,2013-11-25 20:55:00,
2013-11-25 15:00:00,36.7,34.6,30.14,NNE,19,4.0,5.0,92,0.13,,---,0.91,54.00,VWS V14.00,2013-11-25 21:00:00,
2013-11-25 15:05:00,36.8,34.7,30.15,NNE,21,3.0,4.0,92,0.08,,---,0.91,47.00,VWS V14.00,2013-11-25 21:05:00,
2013-11-25 15:10:00,36.8,34.7,30.15,North,5,4.0,5.0,92,0.05,,---,0.92,32.00,VWS V14.00,2013-11-25 21:10:00,
2013-11-25 15:15:00,37.0,34.9,30.14,ENE,63,5.0,6.0,92,0.05,,---,0.92,49.00,VWS V14.00,2013-11-25 21:15:00,
2013-11-25 15:20:00,37.1,35.0,30.14,NE,36,5.0,5.0,92,0.05,,---,0.92,44.00,VWS V14.00,2013-11-25 21:20:00,
2013-11-25 15:25:00,37.2,35.1,30.14,NNE,25,5.0,5.0,92,0.04,,---,0.92,35.00,VWS V14.00,2013-11-25 21:25:00,
2013-11-25 15:30:00,37.2,35.1,30.15,NNE,14,5.0,5.0,92,0.00,,---,0.93,33.00,VWS V14.00,2013-11-25 21:30:00,
2013-11-25 15:35:00,37.2,35.1,30.15,North,355,4.0,7.0,92,0.00,,---,0.93,19.00,VWS V14.00,2013-11-25 21:35:00,
2013-11-25 15:40:00,37.2,35.1,30.15,NNE,12,3.0,3.0,92,0.05,,---,0.94,18.00,VWS V14.00,2013-11-25 21:40:00,
2013-11-25 15:45:00,37.2,35.1,30.16,North,350,4.0,4.0,92,0.05,,---,0.94,14.00,VWS V14.00,2013-11-25 21:45:00,
2013-11-25 15:50:00,37.3,35.2,30.15,North,11,5.0,6.0,92,0.05,,---,0.95,21.00,VWS V14.00,2013-11-25 21:50:00,
2013-11-25 15:55:00,37.4,35.3,30.13,NNE,15,5.0,5.0,92,0.05,,---,0.95,32.00,VWS V14.00,2013-11-25 21:55:00,
2013-11-25 16:00:00,37.4,35.3,30.14,NW,326,7.0,8.0,92,0.05,,---,0.95,25.00,VWS V14.00,2013-11-25 22:00:00,
2013-11-25 16:05:00,37.5,35.4,30.15,North,351,3.0,3.0,92,0.05,,---,0.96,16.00,VWS V14.00,2013-11-25 22:05:00,
2013-11-25 16:10:00,37.5,35.4,30.14,NNW,345,7.0,7.0,92,0.05,,---,0.96,12.00,VWS V14.00,2013-11-25 22:10:00,
2013-11-25 16:15:00,37.6,35.5,30.14,NNE,15,6.0,9.0,92,0.05,,---,0.96,7.00,VWS V14.00,2013-11-25 22:15:00,
2013-11-25 16:20:00,37.5,35.4,30.14,North,11,6.0,6.0,92,0.00,,---,0.96,9.00,VWS V14.00,2013-11-25 22:20:00,
2013-11-25 16:25:00,37.5,35.4,30.15,NNW,348,6.0,6.0,92,0.00,,---,0.96,5.00,VWS V14.00,2013-11-25 22:25:00,
2013-11-25 16:30:00,37.5,35.4,30.14,North,5,3.0,3.0,92,0.00,,---,0.96,7.00,VWS V14.00,2013-11-25 22:30:00,
2013-11-25 16:35:00,37.5,35.4,30.14,North,355,3.0,6.0,92,0.00,,---,0.97,5.00,VWS V14.00,2013-11-25 22:35:00,
2013-11-25 16:40:00,37.5,35.4,30.15,NNE,19,5.0,7.0,92,0.00,,---,0.97,0.00,VWS V14.00,2013-11-25 22:40:00,
2013-11-25 16:45:00,37.5,35.4,30.16,North,355,4.0,10.0,92,0.00,,---,0.97,0.00,VWS V14.00,2013-11-25 22:45:00,
2013-11-25 16:50:00,37.5,35.4,30.14,North,5,7.0,7.0,92,0.00,,---,0.97,0.00,VWS V14.00,2013-11-25 22:50:00,
2013-11-25 16:55:00,37.5,35.4,30.13,North,360,5.0,6.0,92,0.00,,---,0.97,0.00,VWS V14.00,2013-11-25 22:55:00,
2013-11-25 17:00:00,37.4,35.3,30.13,NNW,346,5.0,7.0,92,0.00,,---,0.98,0.00,VWS V14.00,2013-11-25 23:00:00,
2013-11-25 17:05:00,37.3,35.2,30.13,NNE,13,8.0,8.0,92,0.00,,---,0.98,0.00,VWS V14.00,2013-11-25 23:05:00,
2013-11-25 17:10:00,37.2,35.1,30.13,North,9,6.0,7.0,92,0.00,,---,0.98,0.00,VWS V14.00,2013-11-25 23:10:00,
2013-11-25 17:15:00,37.2,35.1,30.13,North,360,4.0,7.0,92,0.00,,---,0.98,0.00,VWS V14.00,2013-11-25 23:15:00,
2013-11-25 17:20:00,37.1,35.0,30.13,North,5,6.0,7.0,92,0.00,,---,0.99,0.00,VWS V14.00,2013-11-25 23:20:00,
2013-11-25 17:25:00,37.1,35.0,30.13,NNE,18,4.0,4.0,92,0.00,,---,0.99,0.00,VWS V14.00,2013-11-25 23:25:00,
2013-11-25 17:30:00,37.0,34.9,30.13,North,5,3.0,5.0,92,0.00,,---,0.99,0.00,VWS V14.00,2013-11-25 23:30:00,
2013-11-25 17:35:00,37.1,35.0,30.12,NNE,12,7.0,7.0,92,0.00,,---,0.99,0.00,VWS V14.00,2013-11-25 23:35:00,
2013-11-25 17:40:00,37.1,35.0,30.12,NNE,13,3.0,6.0,92,0.00,,---,0.99,0.00,VWS V14.00,2013-11-25 23:40:00,
2013-11-25 17:45:00,37.1,35.0,30.11,North,349,3.0,6.0,92,0.00,,---,0.99,0.00,VWS V14.00,2013-11-25 23:45:00,
2013-11-25 17:50:00,37.0,34.9,30.12,North,355,5.0,8.0,92,0.00,,---,0.99,0.00,VWS V14.00,2013-11-25 23:50:00,
2013-11-25 17:55:00,37.0,34.9,30.12,North,355,3.0,3.0,92,0.00,,---,0.99,0.00,VWS V14.00,2013-11-25 23:55:00,
2013-11-25 18:00:00,37.0,34.9,30.13,NNW,330,6.0,7.0,92,0.00,,---,0.99,0.00,VWS V14.00,2013-11-26 00:00:00,
2013-11-25 18:05:00,37.0,34.9,30.12,NNE,13,6.0,7.0,92,0.00,,---,0.99,0.00,VWS V14.00,2013-11-26 00:05:00,
2013-11-25 18:10:00,37.0,34.9,30.12,NNW,339,8.0,8.0,92,0.00,,---,1.00,0.00,VWS V14.00,2013-11-26 00:10:00,
2013-11-25 18:15:00,37.0,34.9,30.11,NNE,13,4.0,7.0,92,0.14,,---,1.01,0.00,VWS V14.00,2013-11-26 00:15:00,
2013-11-25 18:20:00,37.0,34.9,30.11,North,355,4.0,7.0,92,0.07,,---,1.02,0.00,VWS V14.00,2013-11-26 00:20:00,
2013-11-25 18:25:00,37.0,34.9,30.11,NE,39,5.0,9.0,92,0.07,,---,1.02,0.00,VWS V14.00,2013-11-26 00:25:00,
2013-11-25 18:30:00,37.0,34.9,30.10,NNE,22,11.0,11.0,92,0.06,,---,1.03,0.00,VWS V14.00,2013-11-26 00:30:00,
2013-11-25 18:35:00,36.9,34.8,30.09,NNE,31,5.0,7.0,92,0.06,,---,1.03,0.00,VWS V14.00,2013-11-26 00:35:00,
2013-11-25 18:40:00,36.9,34.8,30.10,North,9,5.0,8.0,92,0.06,,---,1.03,0.00,VWS V14.00,2013-11-26 00:40:00,
2013-11-25 18:45:00,36.9,34.8,30.11,North,9,4.0,7.0,92,0.05,,---,1.04,0.00,VWS V14.00,2013-11-26 00:45:00,
2013-11-25 18:50:00,36.9,34.8,30.12,NNE,14,6.0,6.0,92,0.15,,---,1.06,0.00,VWS V14.00,2013-11-26 00:50:00,
2013-11-25 18:55:00,36.9,34.8,30.11,North,5,5.0,7.0,92,0.16,,---,1.07,0.00,VWS V14.00,2013-11-26 00:55:00,
2013-11-25 19:00:00,37.0,34.9,30.11,North,355,7.0,8.0,92,0.13,,---,1.08,0.00,VWS V14.00,2013-11-26 01:00:00,
2013-11-25 19:05:00,37.0,34.9,30.10,NNE,12,5.0,9.0,92,0.11,,---,1.09,0.00,VWS V14.00,2013-11-26 01:05:00,
2013-11-25 19:10:00,37.0,34.9,30.11,North,351,5.0,6.0,92,0.10,,---,1.09,0.00,VWS V14.00,2013-11-26 01:10:00,
2013-11-25 19:15:00,37.0,34.9,30.11,North,355,7.0,9.0,92,0.07,,---,1.09,0.00,VWS V14.00,2013-11-26 01:15:00,
2013-11-25 19:20:00,37.0,34.9,30.11,NW,315,7.0,9.0,92,0.04,,---,1.09,0.00,VWS V14.00,2013-11-26 01:20:00,
2013-11-25 19:25:00,36.9,34.8,30.12,NW,325,6.0,10.0,92,0.00,,---,1.09,0.00,VWS V14.00,2013-11-26 01:25:00,
2013-11-25 19:30:00,36.9,34.8,30.12,NNW,333,4.0,7.0,92,0.00,,---,1.10,0.00,VWS V14.00,2013-11-26 01:30:00,
2013-11-25 19:35:00,36.9,34.8,30.12,NNW,347,4.0,6.0,92,0.00,,---,1.10,0.00,VWS V14.00,2013-11-26 01:35:00,
2013-11-25 19:40:00,36.9,34.8,30.13,NNW,329,5.0,7.0,92,0.06,,---,1.11,0.00,VWS V14.00,2013-11-26 01:40:00,
2013-11-25 19:45:00,36.9,34.8,30.13,North,355,4.0,7.0,92,0.06,,---,1.11,0.00,VWS V14.00,2013-11-26 01:45:00,
2013-11-25 19:50:00,36.9,34.8,30.13,NNW,338,4.0,7.0,92,0.05,,---,1.12,0.00,VWS V14.00,2013-11-26 01:50:00,
2013-11-25 19:55:00,37.0,34.9,30.13,NNW,327,7.0,10.0,92,0.05,,---,1.13,0.00,VWS V14.00,2013-11-26 01:55:00,
2013-11-25 20:00:00,37.0,34.9,30.13,NNW,329,7.0,8.0,92,0.09,,---,1.13,0.00,VWS V14.00,2013-11-26 02:00:00,
2013-11-25 20:05:00,37.0,34.9,30.13,NW,319,8.0,9.0,92,0.09,,---,1.14,0.00,VWS V14.00,2013-11-26 02:05:00,
2013-11-25 20:10:00,37.0,34.9,30.14,NNW,331,8.0,9.0,92,0.07,,---,1.15,0.00,VWS V14.00,2013-11-26 02:10:00,
2013-11-25 20:15:00,37.0,34.9,30.14,NW,317,4.0,6.0,92,0.07,,---,1.15,0.00,VWS V14.00,2013-11-26 02:15:00,
2013-11-25 20:20:00,36.9,34.8,30.14,NNW,344,5.0,9.0,92,0.07,,---,1.16,0.00,VWS V14.00,2013-11-26 02:20:00,
2013-11-25 20:25:00,36.9,34.8,30.15,NNW,331,6.0,6.0,92,0.11,,---,1.17,0.00,VWS V14.00,2013-11-26 02:25:00,
2013-11-25 20:30:00,36.8,34.7,30.14,North,355,8.0,9.0,92,0.12,,---,1.18,0.00,VWS V14.00,2013-11-26 02:30:00,
2013-11-25 20:35:00,36.8,34.7,30.14,NNW,334,8.0,10.0,92,0.15,,---,1.19,0.00,VWS V14.00,2013-11-26 02:35:00,
2013-11-25 20:40:00,36.8,34.7,30.13,NNW,346,5.0,8.0,92,0.23,,---,1.21,0.00,VWS V14.00,2013-11-26 02:40:00,
2013-11-25 20:45:00,36.8,34.7,30.13,NNW,328,10.0,10.0,92,0.20,,---,1.23,0.00,VWS V14.00,2013-11-26 02:45:00,
2013-11-25 20:50:00,36.8,34.7,30.13,North,350,5.0,6.0,92,0.20,,---,1.24,0.00,VWS V14.00,2013-11-26 02:50:00,
2013-11-25 20:55:00,36.8,34.7,30.12,NNW,346,5.0,8.0,92,0.16,,---,1.25,0.00,VWS V14.00,2013-11-26 02:55:00,
2013-11-25 21:00:00,36.8,34.7,30.12,NNW,339,4.0,4.0,92,0.14,,---,1.27,0.00,VWS V14.00,2013-11-26 03:00:00,
2013-11-25 21:05:00,36.7,34.6,30.11,NNW,332,4.0,8.0,92,0.12,,---,1.28,0.00,VWS V14.00,2013-11-26 03:05:00,
2013-11-25 21:10:00,36.7,34.6,30.12,North,5,4.0,8.0,92,0.18,,---,1.29,0.00,VWS V14.00,2013-11-26 03:10:00,
2013-11-25 21:15:00,36.7,34.6,30.13,NNW,327,6.0,8.0,92,0.12,,---,1.30,0.00,VWS V14.00,2013-11-26 03:15:00,
2013-11-25 21:20:00,36.6,34.5,30.12,North,5,6.0,7.0,92,0.12,,---,1.31,0.00,VWS V14.00,2013-11-26 03:20:00,
2013-11-25 21:25:00,36.6,34.5,30.12,North,9,8.0,8.0,92,0.10,,---,1.31,0.00,VWS V14.00,2013-11-26 03:25:00,
2013-11-25 21:30:00,36.6,34.5,30.11,North,360,8.0,8.0,92,0.09,,---,1.32,0.00,VWS V14.00,2013-11-26 03:30:00,
2013-11-25 21:35:00,36.6,34.5,30.11,North,355,1.0,6.0,92,0.09,,---,1.33,0.00,VWS V14.00,2013-11-26 03:35:00,
2013-11-25 21:40:00,36.7,34.6,30.11,North,355,4.0,6.0,92,0.07,,---,1.34,0.00,VWS V14.00,2013-11-26 03:40:00,
2013-11-25 21:45:00,36.6,34.5,30.11,NNW,339,5.0,6.0,92,0.07,,---,1.34,0.00,VWS V14.00,2013-11-26 03:45:00,
2013-11-25 21:50:00,36.6,34.5,30.10,North,9,8.0,11.0,92,0.07,,---,1.35,0.00,VWS V14.00,2013-11-26 03:50:00,
2013-11-25 21:55:00,36.7,34.6,30.10,North,355,5.0,9.0,92,0.07,,---,1.35,0.00,VWS V14.00,2013-11-26 03:55:00,
2013-11-25 22:00:00,36.7,34.6,30.10,North,360,6.0,10.0,92,0.05,,---,1.35,0.00,VWS V14.00,2013-11-26 04:00:00,
2013-11-25 22:05:00,36.8,34.7,30.10,North,360,6.0,9.0,92,0.04,,---,1.36,0.00,VWS V14.00,2013-11-26 04:05:00,
2013-11-25 22:10:00,36.8,34.7,30.10,North,360,6.0,8.0,92,0.04,,---,1.36,0.00,VWS V14.00,2013-11-26 04:10:00,
2013-11-25 22:15:00,36.8,34.7,30.10,NNW,333,7.0,9.0,92,0.06,,---,1.37,0.00,VWS V14.00,2013-11-26 04:15:00,
2013-11-25 22:20:00,36.8,34.7,30.11,NNW,337,7.0,9.0,92,0.06,,---,1.37,0.00,VWS V14.00,2013-11-26 04:20:00,
2013-11-25 22:25:00,36.9,34.8,30.11,NNW,338,4.0,8.0,92,0.07,,---,1.38,0.00,VWS V14.00,2013-11-26 04:25:00,
2013-11-25 22:30:00,37.0,34.9,30.11,North,355,7.0,10.0,92,0.06,,---,1.39,0.00,VWS V14.00,2013-11-26 04:30:00,
2013-11-25 22:35:00,37.0,34.9,30.11,North,355,5.0,7.0,92,0.06,,---,1.39,0.00,VWS V14.00,2013-11-26 04:35:00,
2013-11-25 22:40:00,37.1,35.0,30.10,North,350,7.0,11.0,92,0.06,,---,1.40,0.00,VWS V14.00,2013-11-26 04:40:00,
2013-11-25 22:45:00,37.1,35.0,30.09,NNE,24,3.0,6.0,92,0.06,,---,1.40,0.00,VWS V14.00,2013-11-26 04:45:00,
2013-11-25 22:50:00,37.1,35.0,30.09,NNE,20,3.0,7.0,92,0.10,,---,1.41,0.00,VWS V14.00,2013-11-26 04:50:00,
2013-11-25 22:55:00,37.1,35.0,30.09,NE,41,4.0,5.0,92,0.07,,---,1.41,0.00,VWS V14.00,2013-11-26 04:55:00,
2013-11-25 23:00:00,37.2,35.1,30.09,NNE,19,3.0,5.0,92,0.05,,---,1.42,0.00,VWS V14.00,2013-11-26 05:00:00,
2013-11-25 23:01:00,37.1,35.0,30.10,NNE,29,4.0,5.0,92,0.05,,---,1.42,0.00,VWS V14.00,2013-11-26 05:01:00,
2013-11-25 23:02:00,37.1,35.0,30.09,NNE,16,4.0,5.0,92,0.05,,---,1.42,0.00,VWS V14.00,2013-11-26 05:02:00,
2013-11-25 23:07:00,37.2,35.1,30.10,NNE,22,4.0,4.0,92,0.13,,---,1.43,0.00,VWS V14.00,2013-11-26 05:07:00,
2013-11-25 23:12:00,37.2,35.1,30.10,North,360,4.0,6.0,92,0.14,,---,1.45,0.00,VWS V14.00,2013-11-26 05:12:00,
2013-11-25 23:17:00,37.2,35.1,30.10,NNE,24,4.0,4.0,92,0.13,,---,1.46,0.00,VWS V14.00,2013-11-26 05:17:00,
2013-11-25 23:22:00,37.2,35.1,30.09,North,5,4.0,5.0,92,0.17,,---,1.47,0.00,VWS V14.00,2013-11-26 05:22:00,
2013-11-25 23:27:00,37.2,35.1,30.08,North,350,4.0,5.0,92,0.15,,---,1.49,0.00,VWS V14.00,2013-11-26 05:27:00,
2013-11-25 23:32:00,37.2,35.1,30.08,North,355,2.0,3.0,92,0.18,,---,1.50,0.00,VWS V14.00,2013-11-26 05:32:00,
2013-11-25 23:37:00,37.2,35.1,30.08,NNE,24,2.0,5.0,92,0.16,,---,1.52,0.00,VWS V14.00,2013-11-26 05:37:00,
2013-11-25 23:42:00,37.2,35.1,30.09,NNE,19,1.0,4.0,92,0.21,,---,1.53,0.00,VWS V14.00,2013-11-26 05:42:00,
2013-11-25 23:47:00,37.2,35.1,30.08,NNE,30,6.0,8.0,92,0.16,,---,1.55,0.00,VWS V14.00,2013-11-26 05:47:00,
2013-11-25 23:52:00,37.3,35.2,30.07,NNE,32,4.0,5.0,92,0.15,,---,1.56,0.00,VWS V14.00,2013-11-26 05:52:00,
2013-11-25 23:57:00,37.3,35.2,30.06,NE,44,7.0,9.0,92,0.23,,---,1.58,0.00,VWS V14.00,2013-11-26 05:57:00,